createdAt,value
2018-02-13T00:00:17.461Z,90.95
2018-02-13T00:02:45.765Z,90.73
2018-02-13T00:05:14.068Z,90.68
2018-02-13T00:07:43.138Z,91.21
2018-02-13T00:10:11.433Z,91.46
2018-02-13T00:12:40.512Z,91.26
2018-02-13T00:15:08.817Z,92.33
2018-02-13T00:17:37.117Z,92.40
2018-02-13T00:20:05.430Z,91.47
2018-02-13T00:22:49.125Z,90.92
2018-02-13T00:25:17.425Z,90.02
2018-02-13T00:27:45.741Z,89.33
2018-02-13T00:30:14.809Z,88.92
2018-02-13T00:32:43.109Z,89.89
2018-02-13T00:35:12.205Z,90.52
2018-02-13T00:37:40.513Z,92.01
2018-02-13T00:40:08.813Z,91.08
2018-02-13T00:42:37.121Z,89.89
2018-02-13T00:45:06.186Z,89.34
2018-02-13T00:47:34.486Z,89.07
2018-02-13T00:50:02.794Z,89.66
2018-02-13T00:52:31.099Z,88.87
2018-02-13T00:54:59.397Z,88.53
2018-02-13T00:57:27.709Z,87.91
2018-02-13T00:59:56.013Z,87.65
2018-02-13T01:02:24.317Z,87.07
2018-02-13T01:04:52.621Z,86.70
2018-02-13T01:07:20.937Z,86.64
2018-02-13T01:09:49.241Z,86.46
2018-02-13T01:12:17.566Z,88.13
2018-02-13T01:14:45.868Z,87.92
2018-02-13T01:17:14.933Z,88.04
2018-02-13T01:19:43.233Z,87.77
2018-02-13T01:22:12.298Z,87.41
2018-02-13T01:24:40.597Z,87.20
2018-02-13T01:27:09.677Z,87.59
2018-02-13T01:29:37.977Z,88.03
2018-02-13T01:32:07.069Z,87.71
2018-02-13T01:34:36.136Z,87.62
2018-02-13T01:37:04.444Z,87.56
2018-02-13T01:39:32.766Z,87.90
2018-02-13T01:42:01.062Z,88.90
2018-02-13T01:44:29.353Z,89.17
2018-02-13T01:46:57.666Z,88.87
2018-02-13T01:49:25.962Z,88.50
2018-02-13T01:51:54.501Z,88.24
2018-02-13T01:54:23.569Z,87.79
2018-02-13T01:56:51.870Z,87.75
2018-02-13T01:59:20.181Z,87.40
2018-02-13T02:01:48.490Z,87.52
2018-02-13T02:04:17.157Z,87.29
2018-02-13T02:06:45.469Z,87.48
2018-02-13T02:09:13.765Z,87.35
2018-02-13T02:11:42.837Z,87.15
2018-02-13T02:14:11.146Z,86.69
2018-02-13T02:16:40.674Z,86.61
2018-02-13T02:19:08.966Z,86.48
2018-02-13T02:21:37.570Z,87.13
2018-02-13T02:24:05.871Z,86.96
2018-02-13T02:26:34.169Z,87.23
2018-02-13T02:29:02.480Z,87.58
2018-02-13T02:31:30.769Z,88.56
2018-02-13T02:33:59.637Z,89.75
2018-02-13T02:36:27.946Z,90.13
2018-02-13T02:38:56.242Z,89.65
2018-02-13T02:41:24.541Z,88.76
2018-02-13T02:43:52.845Z,88.35
2018-02-13T02:46:21.143Z,88.03
2018-02-13T02:48:49.441Z,88.55
2018-02-13T02:51:17.756Z,88.73
2018-02-13T02:53:46.064Z,89.05
2018-02-13T02:56:14.367Z,88.50
2018-02-13T02:58:42.665Z,88.78
2018-02-13T03:01:11.741Z,89.30
2018-02-13T03:03:40.050Z,90.15
2018-02-13T03:06:09.122Z,90.09
2018-02-13T03:08:37.426Z,89.61
2018-02-13T03:11:05.730Z,89.79
2018-02-13T03:13:34.033Z,90.02
2018-02-13T03:16:03.825Z,89.87
2018-02-13T03:18:32.129Z,89.70
2018-02-13T03:21:00.430Z,90.20
2018-02-13T03:23:28.730Z,90.80
2018-02-13T03:25:57.039Z,91.54
2018-02-13T03:28:25.336Z,93.75
2018-02-13T03:30:53.638Z,93.93
2018-02-13T03:33:21.943Z,94.05
2018-02-13T03:35:50.257Z,94.22
2018-02-13T03:38:18.557Z,95.82
2018-02-13T03:40:46.864Z,95.89
2018-02-13T03:43:15.165Z,96.16
2018-02-13T03:45:43.461Z,95.98
2018-02-13T03:48:11.785Z,95.64
2018-02-13T03:50:40.855Z,95.52
2018-02-13T03:53:09.161Z,95.66
2018-02-13T03:55:38.253Z,96.83
2018-02-13T03:58:06.596Z,97.03
2018-02-13T04:00:34.958Z,96.62
2018-02-13T04:03:03.266Z,96.75
2018-02-13T04:05:31.565Z,96.71
2018-02-13T04:07:59.863Z,96.31
2018-02-13T04:10:28.170Z,96.48
2018-02-13T04:12:56.488Z,95.42
2018-02-13T04:15:25.557Z,95.40
2018-02-13T04:17:53.861Z,95.17
2018-02-13T04:20:24.497Z,94.67
2018-02-13T04:22:52.802Z,94.95
2018-02-13T04:25:21.101Z,94.56
2018-02-13T04:27:49.731Z,94.63
2018-02-13T04:30:18.034Z,94.43
2018-02-13T04:32:46.339Z,94.93
2018-02-13T04:35:14.661Z,95.41
2018-02-13T04:37:43.748Z,95.67
2018-02-13T04:40:12.055Z,95.23
2018-02-13T04:42:40.653Z,95.42
2018-02-13T04:45:08.957Z,95.03
2018-02-13T04:47:37.274Z,95.13
2018-02-13T04:50:06.352Z,95.55
2018-02-13T04:52:34.660Z,95.45
2018-02-13T04:55:02.954Z,94.69
2018-02-13T04:57:31.263Z,94.14
2018-02-13T04:59:59.575Z,93.71
2018-02-13T05:02:27.876Z,94.08
2018-02-13T05:04:56.177Z,93.55
2018-02-13T05:07:24.478Z,93.26
2018-02-13T05:09:52.785Z,93.27
2018-02-13T05:12:21.862Z,92.62
2018-02-13T05:14:50.966Z,92.42
2018-02-13T05:17:19.271Z,92.60
2018-02-13T05:19:47.561Z,92.50
2018-02-13T05:22:15.869Z,92.67
2018-02-13T05:24:44.170Z,92.19
2018-02-13T05:27:12.490Z,91.92
2018-02-13T05:29:40.832Z,91.15
2018-02-13T05:32:09.109Z,90.79
2018-02-13T05:34:37.417Z,90.27
2018-02-13T05:37:06.301Z,90.24
2018-02-13T05:39:35.620Z,90.94
2018-02-13T05:42:03.925Z,90.98
2018-02-13T05:44:32.230Z,91.64
2018-02-13T05:47:01.295Z,93.33
2018-02-13T05:49:29.605Z,93.96
2018-02-13T05:51:57.914Z,93.79
2018-02-13T05:54:27.033Z,93.85
2018-02-13T05:56:56.839Z,94.08
2018-02-13T05:59:25.193Z,94.53
2018-02-13T06:01:53.504Z,94.45
2018-02-13T06:04:21.812Z,94.09
2018-02-13T06:06:50.888Z,93.77
2018-02-13T06:09:19.201Z,93.86
2018-02-13T06:11:47.505Z,93.12
2018-02-13T06:14:16.753Z,92.45
2018-02-13T06:16:45.599Z,92.03
2018-02-13T06:19:13.905Z,91.38
2018-02-13T06:21:42.197Z,90.87
2018-02-13T06:24:10.513Z,90.16
2018-02-13T06:26:38.809Z,89.45
2018-02-13T06:29:07.123Z,88.88
2018-02-13T06:31:35.425Z,87.94
2018-02-13T06:34:03.732Z,88.56
2018-02-13T06:36:32.026Z,88.91
2018-02-13T06:39:00.326Z,88.69
2018-02-13T06:41:28.629Z,88.50
2018-02-13T06:43:56.937Z,88.02
2018-02-13T06:46:25.242Z,88.34
2018-02-13T06:48:53.541Z,88.58
2018-02-13T06:51:22.605Z,88.31
2018-02-13T06:53:50.915Z,88.94
2018-02-13T06:56:20.032Z,89.39
2018-02-13T06:58:49.025Z,89.90
2018-02-13T07:01:17.329Z,90.12
2018-02-13T07:03:45.629Z,90.66
2018-02-13T07:06:13.922Z,91.34
2018-02-13T07:08:42.246Z,91.76
2018-02-13T07:11:10.541Z,92.26
2018-02-13T07:13:38.846Z,91.83
2018-02-13T07:16:07.162Z,91.63
2018-02-13T07:18:35.465Z,91.53
2018-02-13T07:21:04.348Z,91.43
2018-02-13T07:23:32.649Z,90.76
2018-02-13T07:26:01.813Z,90.67
2018-02-13T07:28:30.105Z,90.95
2018-02-13T07:30:59.643Z,91.03
2018-02-13T07:33:27.941Z,90.96
2018-02-13T07:35:57.014Z,90.34
2018-02-13T07:38:25.317Z,91.51
2018-02-13T07:40:53.619Z,91.51
2018-02-13T07:43:21.929Z,91.87
2018-02-13T07:45:50.235Z,92.13
2018-02-13T07:48:18.542Z,93.10
2018-02-13T07:50:46.865Z,93.61
2018-02-13T07:53:15.196Z,93.60
2018-02-13T07:55:44.321Z,93.34
2018-02-13T07:58:13.485Z,92.78
2018-02-13T08:00:42.414Z,92.59
2018-02-13T08:03:10.717Z,91.31
2018-02-13T08:05:39.025Z,91.12
2018-02-13T08:08:07.343Z,90.28
2018-02-13T08:10:35.645Z,89.67
2018-02-13T08:13:04.471Z,88.46
2018-02-13T08:15:32.766Z,88.42
2018-02-13T08:18:01.069Z,88.20
2018-02-13T08:20:29.360Z,87.20
2018-02-13T08:22:58.462Z,87.13
2018-02-13T08:25:26.773Z,86.84
2018-02-13T08:27:55.073Z,86.10
2018-02-13T08:30:23.373Z,85.58
2018-02-13T08:32:51.681Z,85.30
2018-02-13T08:35:19.982Z,84.35
2018-02-13T08:37:49.050Z,85.14
2018-02-13T08:40:17.351Z,85.57
2018-02-13T08:42:45.681Z,84.72
2018-02-13T08:45:13.987Z,84.83
2018-02-13T08:47:43.075Z,85.44
2018-02-13T08:50:11.381Z,85.26
2018-02-13T08:52:40.437Z,85.39
2018-02-13T08:55:08.739Z,85.38
2018-02-13T08:57:37.046Z,85.06
2018-02-13T09:00:05.690Z,83.65
2018-02-13T09:02:35.127Z,83.42
2018-02-13T09:05:03.413Z,82.98
2018-02-13T09:07:31.713Z,82.93
2018-02-13T09:10:00.613Z,83.11
2018-02-13T09:12:30.056Z,82.81
2018-02-13T09:14:58.685Z,83.13
2018-02-13T09:17:26.977Z,83.55
2018-02-13T09:19:55.270Z,82.89
2018-02-13T09:22:23.590Z,82.43
2018-02-13T09:24:51.888Z,83.76
2018-02-13T09:27:20.174Z,85.59
2018-02-13T09:29:48.480Z,85.98
2018-02-13T09:32:16.796Z,85.88
2018-02-13T09:34:45.098Z,84.77
2018-02-13T09:37:14.697Z,84.61
2018-02-13T09:39:42.995Z,84.16
2018-02-13T09:42:11.285Z,84.02
2018-02-13T09:44:39.582Z,83.29
2018-02-13T09:47:07.882Z,83.40
2018-02-13T09:49:36.181Z,82.09
2018-02-13T09:52:04.484Z,82.29
2018-02-13T09:54:32.764Z,81.76
2018-02-13T09:57:01.078Z,83.55
2018-02-13T09:59:30.129Z,84.21
2018-02-13T10:01:58.433Z,84.24
2018-02-13T10:04:27.481Z,83.25
2018-02-13T10:06:55.769Z,82.87
2018-02-13T10:09:24.073Z,83.56
2018-02-13T10:11:52.361Z,84.96
2018-02-13T10:14:20.653Z,85.69
2018-02-13T10:16:49.325Z,84.69
2018-02-13T10:19:18.378Z,84.06
2018-02-13T10:21:46.692Z,83.05
2018-02-13T10:24:14.969Z,81.78
2018-02-13T10:26:43.258Z,82.55
2018-02-13T10:29:11.558Z,82.23
2018-02-13T10:31:39.848Z,82.46
2018-02-13T10:34:08.141Z,82.29
2018-02-13T10:36:36.434Z,81.58
2018-02-13T10:39:04.762Z,79.74
2018-02-13T10:41:33.066Z,79.88
2018-02-13T10:44:01.349Z,79.53
2018-02-13T10:46:29.645Z,78.54
2018-02-13T10:48:57.948Z,79.02
2018-02-13T10:51:26.254Z,80.05
2018-02-13T10:53:55.973Z,80.42
2018-02-13T10:56:24.274Z,81.38
2018-02-13T10:58:53.249Z,80.76
2018-02-13T11:01:26.938Z,81.53
2018-02-13T11:03:55.233Z,79.80
2018-02-13T11:06:23.521Z,79.86
2018-02-13T11:08:51.840Z,79.73
2018-02-13T11:11:20.126Z,79.76
2018-02-13T11:13:48.417Z,79.11
2018-02-13T11:16:16.705Z,77.11
2018-02-13T11:18:46.420Z,77.51
2018-02-13T11:21:14.708Z,77.91
2018-02-13T11:23:43.006Z,77.42
2018-02-13T11:26:11.294Z,76.85
2018-02-13T11:28:40.366Z,76.69
2018-02-13T11:31:08.657Z,77.08
2018-02-13T11:33:37.725Z,76.48
2018-02-13T11:36:06.010Z,75.75
2018-02-13T11:38:34.314Z,77.08
2018-02-13T11:41:02.598Z,75.87
2018-02-13T11:43:30.885Z,76.13
2018-02-13T11:45:59.181Z,75.26
2018-02-13T11:48:28.251Z,74.66
2018-02-13T11:50:57.345Z,73.27
2018-02-13T11:53:25.638Z,72.73
2018-02-13T11:55:53.936Z,72.19
2018-02-13T11:58:22.230Z,73.29
2018-02-13T12:00:50.521Z,73.09
2018-02-13T12:03:19.626Z,72.19
2018-02-13T12:05:47.914Z,70.93
2018-02-13T12:08:16.271Z,72.03
2018-02-13T12:10:45.401Z,71.61
2018-02-13T12:13:13.699Z,71.51
2018-02-13T12:15:41.982Z,71.66
2018-02-13T12:18:10.271Z,69.66
2018-02-13T12:20:38.557Z,67.97
2018-02-13T12:23:06.896Z,67.19
2018-02-13T12:25:42.900Z,64.61
2018-02-13T12:28:11.194Z,63.47
2018-02-13T12:30:39.485Z,63.86
2018-02-13T12:33:07.803Z,63.69
2018-02-13T12:35:36.090Z,64.20
2018-02-13T12:38:04.385Z,63.99
2018-02-13T12:40:32.673Z,64.34
2018-02-13T12:43:01.917Z,63.58
2018-02-13T12:45:30.201Z,62.92
2018-02-13T12:47:58.537Z,64.74
2018-02-13T12:50:26.786Z,65.23
2018-02-13T12:52:55.426Z,66.53
2018-02-13T12:55:24.584Z,66.77
2018-02-13T12:57:52.937Z,66.75
2018-02-13T13:00:21.237Z,68.19
2018-02-13T13:02:49.534Z,68.86
2018-02-13T13:05:18.582Z,69.32
2018-02-13T13:07:46.878Z,68.25
2018-02-13T13:10:15.165Z,69.42
2018-02-13T13:12:43.517Z,69.45
2018-02-13T13:15:11.755Z,68.22
2018-02-13T13:17:40.062Z,68.34
2018-02-13T13:20:08.358Z,68.08
2018-02-13T13:22:36.649Z,69.34
2018-02-13T13:25:04.949Z,67.95
2018-02-13T13:27:33.238Z,64.16
2018-02-13T13:30:01.541Z,63.68
2018-02-13T13:32:30.362Z,63.68
2018-02-13T13:34:59.261Z,63.97
2018-02-13T13:37:27.553Z,64.50
2018-02-13T13:39:55.857Z,64.01
2018-02-13T13:42:24.149Z,62.42
2018-02-13T13:44:52.457Z,62.57
2018-02-13T13:47:20.750Z,62.07
2018-02-13T13:49:49.038Z,61.11
2018-02-13T13:52:17.342Z,59.95
2018-02-13T13:54:45.617Z,56.20
2018-02-13T13:57:13.909Z,52.85
2018-02-13T13:59:42.201Z,50.74
2018-02-13T14:02:10.499Z,51.16
2018-02-13T14:04:38.790Z,53.13
2018-02-13T14:07:07.090Z,52.53
2018-02-13T14:09:35.381Z,50.46
2018-02-13T14:12:03.669Z,51.20
2018-02-13T14:14:31.965Z,51.80
2018-02-13T14:17:00.941Z,51.45
2018-02-13T14:19:29.233Z,49.33
2018-02-13T14:21:57.545Z,49.10
2018-02-13T14:24:26.618Z,49.30
2018-02-13T14:26:54.967Z,49.39
2018-02-13T14:29:23.262Z,50.32
2018-02-13T14:31:51.566Z,51.92
2018-02-13T14:34:19.853Z,51.68
2018-02-13T14:36:48.397Z,53.36
2018-02-13T14:39:16.691Z,54.02
2018-02-13T14:41:44.982Z,50.97
2018-02-13T14:44:13.281Z,48.88
2018-02-13T14:46:42.981Z,46.74
2018-02-13T14:49:11.280Z,44.82
2018-02-13T14:51:39.581Z,42.46
2018-02-13T14:54:07.879Z,41.17
2018-02-13T14:56:36.195Z,40.60
2018-02-13T14:59:04.505Z,39.37
2018-02-13T15:01:32.802Z,38.62
2018-02-13T15:04:01.126Z,40.30
2018-02-13T15:06:29.424Z,39.64
2018-02-13T15:08:57.734Z,38.53
2018-02-13T15:11:26.690Z,37.77
2018-02-13T15:13:54.985Z,37.82
2018-02-13T15:16:23.273Z,37.57
2018-02-13T15:18:51.586Z,36.23
2018-02-13T15:21:19.886Z,36.35
2018-02-13T15:23:48.181Z,36.53
2018-02-13T15:26:16.484Z,36.75
2018-02-13T15:28:44.818Z,37.29
2018-02-13T15:31:13.107Z,38.60
2018-02-13T15:33:41.405Z,38.21
2018-02-13T15:36:09.706Z,38.43
2018-02-13T15:38:38.021Z,39.47
2018-02-13T15:41:06.331Z,39.15
2018-02-13T15:43:34.625Z,42.58
2018-02-13T15:46:02.918Z,43.31
2018-02-13T15:48:31.274Z,44.76
2018-02-13T15:50:59.573Z,45.40
2018-02-13T15:53:27.873Z,45.97
2018-02-13T15:55:56.154Z,47.23
2018-02-13T15:58:24.444Z,48.90
2018-02-13T16:00:52.741Z,50.20
2018-02-13T16:03:21.036Z,51.67
2018-02-13T16:05:50.319Z,53.41
2018-02-13T16:08:19.147Z,54.08
2018-02-13T16:10:47.442Z,54.84
2018-02-13T16:13:15.750Z,56.44
2018-02-13T16:15:44.030Z,57.79
2018-02-13T16:18:12.321Z,57.48
2018-02-13T16:20:40.601Z,58.02
2018-02-13T16:23:08.902Z,58.62
2018-02-13T16:25:37.192Z,59.40
2018-02-13T16:28:05.482Z,59.75
2018-02-13T16:30:33.762Z,60.16
2018-02-13T16:33:02.049Z,59.72
2018-02-13T16:35:30.338Z,60.17
2018-02-13T16:37:58.644Z,60.92
2018-02-13T16:40:26.930Z,61.87
2018-02-13T16:42:55.220Z,62.19
2018-02-13T16:45:23.511Z,62.08
2018-02-13T16:47:52.570Z,64.31
2018-02-13T16:50:20.824Z,65.25
2018-02-13T16:52:49.126Z,66.37
2018-02-13T16:55:17.421Z,67.31
2018-02-13T16:57:45.725Z,67.79
2018-02-13T17:00:14.027Z,68.27
2018-02-13T17:02:42.326Z,68.25
2018-02-13T17:05:10.625Z,69.29
2018-02-13T17:07:38.921Z,69.65
2018-02-13T17:10:07.239Z,69.57
2018-02-13T17:12:35.543Z,70.41
2018-02-13T17:15:04.490Z,71.56
2018-02-13T17:17:32.811Z,74.53
2018-02-13T17:20:01.261Z,75.54
2018-02-13T17:22:29.684Z,75.53
2018-02-13T17:24:58.601Z,75.81
2018-02-13T17:27:28.930Z,74.91
2018-02-13T17:29:58.262Z,74.22
2018-02-13T17:32:27.792Z,75.54
2018-02-13T17:34:57.534Z,75.76
2018-02-13T17:37:27.155Z,75.48
2018-02-13T17:39:58.561Z,75.13
2018-02-13T17:42:28.057Z,75.40
2018-02-13T17:44:57.784Z,74.98
2018-02-13T17:47:27.498Z,74.92
2018-02-13T17:49:57.299Z,75.44
2018-02-13T17:52:27.138Z,76.01
2018-02-13T17:54:57.758Z,77.18
2018-02-13T17:57:27.600Z,77.09
2018-02-13T17:59:58.202Z,76.94
2018-02-13T18:02:28.710Z,76.89
2018-02-13T18:04:58.484Z,77.80
2018-02-13T18:07:28.261Z,79.46
2018-02-13T22:50:00.901Z,87.02
2018-02-13T22:52:29.165Z,86.20
2018-02-13T22:54:57.453Z,86.72
2018-02-13T22:57:25.738Z,86.86
2018-02-13T22:59:54.008Z,86.20
2018-02-13T23:02:22.318Z,85.18
2018-02-13T23:04:50.588Z,84.95
2018-02-13T23:07:18.868Z,84.68
2018-02-13T23:09:47.145Z,85.10
2018-02-13T23:12:15.414Z,85.00
2018-02-13T23:14:43.701Z,84.86
2018-02-13T23:17:11.973Z,85.14
2018-02-13T23:19:40.240Z,84.51
2018-02-13T23:22:08.553Z,84.86
2018-02-13T23:24:38.828Z,84.85
2018-02-13T23:27:07.098Z,84.71
2018-02-13T23:29:35.396Z,85.29
2018-02-13T23:32:03.657Z,85.83
2018-02-13T23:34:31.928Z,86.78
2018-02-13T23:37:00.224Z,86.66
2018-02-13T23:39:28.493Z,86.44
2018-02-13T23:41:56.770Z,86.94
2018-02-13T23:44:25.053Z,87.18
2018-02-13T23:46:53.322Z,87.26
2018-02-13T23:49:21.598Z,87.65
2018-02-13T23:51:49.889Z,87.14
2018-02-13T23:54:18.155Z,87.06
2018-02-13T23:56:46.440Z,87.81
2018-02-13T23:59:14.710Z,87.10
